Time;durP1;ratioP1;P1;durP2;ratioP2;P2;SDS_P1;SDS_P2;PMS_P1;PMS_P2;Temp;Humidity;BMP_temperature;BMP_pressure;BME280_temperature;BME280_humidity;BME280_pressure;Samples;Min_cycle;Max_cycle;Signal;HPM_P1;HPM_P2
2024/02/29 00:01:06;;;;;;;15.73;13.00;;;5.40;99.90;;;;;;4982425;28;20056;-79
2024/02/29 00:03:33;;;;;;;15.68;11.23;;;5.40;99.90;;;;;;4987541;28;20033;-79
2024/02/29 00:05:59;;;;;;;16.05;12.25;;;5.40;99.90;;;;;;5007359;28;20034;-79
2024/02/29 00:08:27;;;;;;;18.38;12.50;;;5.30;99.90;;;;;;4980541;28;20038;-77
2024/02/29 00:10:53;;;;;;;15.85;11.27;;;5.30;99.90;;;;;;4993399;28;20395;-79
2024/02/29 00:13:21;;;;;;;18.02;12.32;;;5.40;99.90;;;;;;5009823;28;20072;-79
2024/02/29 00:15:47;;;;;;;22.70;14.45;;;5.30;99.90;;;;;;4978361;28;20049;-79
2024/02/29 00:18:14;;;;;;;17.60;12.95;;;5.30;99.90;;;;;;4973428;28;20723;-79
2024/02/29 00:20:41;;;;;;;19.70;13.70;;;5.30;99.90;;;;;;4994231;28;20045;-78
2024/02/29 00:23:07;;;;;;;18.17;12.75;;;5.30;99.90;;;;;;5000194;28;20041;-79
2024/02/29 00:25:34;;;;;;;16.98;12.35;;;5.30;99.90;;;;;;5011710;28;20048;-79
2024/02/29 00:28:01;;;;;;;17.65;12.48;;;5.30;99.90;;;;;;4973461;28;20044;-79
2024/02/29 00:30:27;;;;;;;16.88;12.27;;;5.40;99.90;;;;;;5007164;28;20030;-79
2024/02/29 00:32:55;;;;;;;16.42;11.00;;;5.30;99.90;;;;;;4976883;28;20626;-79
2024/02/29 00:35:23;;;;;;;18.88;10.98;;;5.30;99.90;;;;;;4995531;28;20048;-80
2024/02/29 00:37:49;;;;;;;16.73;11.55;;;5.30;99.90;;;;;;4997272;28;20048;-79
2024/02/29 00:40:15;;;;;;;16.80;12.23;;;5.40;99.90;;;;;;4999664;28;20511;-78
2024/02/29 00:42:42;;;;;;;14.20;10.25;;;5.40;99.90;;;;;;4983599;28;20029;-79
2024/02/29 00:45:08;;;;;;;15.90;11.23;;;5.40;99.90;;;;;;4998982;28;20396;-79
2024/02/29 00:47:34;;;;;;;15.55;11.15;;;5.50;99.90;;;;;;5000122;28;20488;-79
2024/02/29 00:50:01;;;;;;;15.55;11.27;;;5.50;99.90;;;;;;4982233;28;21255;-79
2024/02/29 00:52:27;;;;;;;17.40;12.32;;;5.50;99.90;;;;;;4968835;28;20742;-79
2024/02/29 00:54:53;;;;;;;15.52;11.38;;;5.60;99.90;;;;;;4966755;28;20049;-79
2024/02/29 00:57:20;;;;;;;19.92;11.43;;;5.70;99.90;;;;;;5000725;28;20040;-79
2024/02/29 00:59:47;;;;;;;15.70;11.43;;;5.70;99.90;;;;;;4980142;28;20037;-78
2024/02/29 01:02:13;;;;;;;15.98;11.88;;;5.80;99.90;;;;;;4982755;28;20063;-78
2024/02/29 01:04:40;;;;;;;19.20;11.13;;;5.90;99.90;;;;;;4978074;28;20029;-79
2024/02/29 01:07:07;;;;;;;14.82;10.48;;;5.90;99.90;;;;;;4984321;28;20404;-79
2024/02/29 01:09:33;;;;;;;14.95;10.32;;;6.00;99.90;;;;;;4993965;28;20038;-79
2024/02/29 01:11:59;;;;;;;16.42;9.60;;;6.00;99.90;;;;;;4999962;28;20037;-79
2024/02/29 01:14:27;;;;;;;13.57;9.63;;;6.00;99.90;;;;;;4982742;28;20390;-79
2024/02/29 01:16:53;;;;;;;12.57;8.20;;;6.00;99.90;;;;;;4985905;28;20034;-79
2024/02/29 01:19:20;;;;;;;14.25;10.07;;;6.10;99.90;;;;;;4985237;28;20041;-79
2024/02/29 01:21:46;;;;;;;14.10;8.88;;;6.10;99.90;;;;;;5000166;28;20053;-79
2024/02/29 01:24:13;;;;;;;12.65;8.75;;;6.10;99.90;;;;;;4997713;28;20033;-79
2024/02/29 01:26:39;;;;;;;13.02;9.23;;;6.20;99.90;;;;;;4979507;28;20239;-79
2024/02/29 01:29:06;;;;;;;15.45;10.45;;;6.20;99.90;;;;;;4998518;28;20499;-79
2024/02/29 01:31:32;;;;;;;16.70;10.48;;;6.20;99.90;;;;;;4997008;28;20041;-79
2024/02/29 01:33:58;;;;;;;14.32;9.73;;;6.30;99.90;;;;;;4998847;28;20033;-79
2024/02/29 01:36:25;;;;;;;14.43;9.65;;;6.30;99.90;;;;;;4999617;28;20030;-79
2024/02/29 01:38:51;;;;;;;14.88;9.68;;;6.30;99.90;;;;;;4982749;28;20510;-78
2024/02/29 01:41:18;;;;;;;18.80;10.18;;;6.40;99.90;;;;;;4997493;28;20045;-78
2024/02/29 01:43:54;;;;;;;16.92;10.63;;;6.40;99.90;;;;;;4998527;28;20033;-78
2024/02/29 01:46:21;;;;;;;18.13;10.52;;;6.40;99.90;;;;;;4994920;28;20033;-78
2024/02/29 01:48:50;;;;;;;18.25;10.10;;;6.40;99.90;;;;;;4997721;28;20041;-78
2024/02/29 01:51:19;;;;;;;15.77;9.93;;;6.40;99.90;;;;;;5007222;28;20926;-78
2024/02/29 01:53:46;;;;;;;16.42;10.93;;;6.40;99.90;;;;;;5010676;28;20080;-78
2024/02/29 01:56:13;;;;;;;17.40;11.00;;;6.50;99.90;;;;;;4979979;28;20029;-79
2024/02/29 01:58:42;;;;;;;15.90;11.13;;;6.50;99.90;;;;;;4979050;28;20029;-78
2024/02/29 02:01:09;;;;;;;14.25;9.93;;;6.50;99.90;;;;;;4992838;28;20032;-79
2024/02/29 02:03:37;;;;;;;16.40;10.57;;;6.50;99.90;;;;;;5000553;28;20037;-79
2024/02/29 02:06:03;;;;;;;15.98;10.15;;;6.50;99.90;;;;;;4980385;28;20048;-78
2024/02/29 02:08:32;;;;;;;17.30;11.30;;;6.50;99.90;;;;;;4962578;28;20385;-78
2024/02/29 02:10:59;;;;;;;17.90;11.38;;;6.50;99.90;;;;;;4993260;28;20045;-78
2024/02/29 02:13:25;;;;;;;15.15;9.20;;;6.50;99.90;;;;;;4995666;28;20041;-79
2024/02/29 02:15:52;;;;;;;16.45;11.00;;;6.50;99.90;;;;;;4977707;28;20033;-78
2024/02/29 02:18:19;;;;;;;19.98;11.32;;;6.50;99.90;;;;;;5000487;28;20037;-79
2024/02/29 02:20:46;;;;;;;14.82;10.57;;;6.50;99.90;;;;;;4984102;28;20357;-78
2024/02/29 02:23:12;;;;;;;18.58;11.88;;;6.50;99.90;;;;;;5013834;28;20067;-79
2024/02/29 02:25:39;;;;;;;17.52;11.55;;;6.60;99.90;;;;;;4976620;28;20037;-79
2024/02/29 02:28:05;;;;;;;20.65;12.93;;;6.50;99.90;;;;;;4976667;28;20033;-79
2024/02/29 02:30:32;;;;;;;20.42;13.60;;;6.60;99.90;;;;;;4981866;28;20030;-79
2024/02/29 02:32:58;;;;;;;21.13;13.18;;;6.60;99.90;;;;;;4964171;28;20048;-79
2024/02/29 02:35:25;;;;;;;16.98;11.75;;;6.60;99.90;;;;;;4995083;28;20969;-78
2024/02/29 02:37:51;;;;;;;16.70;11.00;;;6.60;99.90;;;;;;4996260;28;20030;-79
2024/02/29 02:40:18;;;;;;;19.25;11.20;;;6.60;99.90;;;;;;4995204;28;20312;-78
2024/02/29 02:42:44;;;;;;;20.35;11.60;;;6.60;99.90;;;;;;4975172;28;20044;-78
2024/02/29 02:45:10;;;;;;;20.90;12.60;;;6.60;99.90;;;;;;4995108;28;20122;-80
2024/02/29 02:47:37;;;;;;;17.48;11.15;;;6.60;99.90;;;;;;4976825;28;20037;-79
2024/02/29 02:50:04;;;;;;;18.70;12.50;;;6.60;99.90;;;;;;4977117;28;20049;-79
2024/02/29 02:52:30;;;;;;;19.35;12.57;;;6.60;99.90;;;;;;4994813;28;20068;-78
2024/02/29 02:54:57;;;;;;;21.40;13.13;;;6.60;99.90;;;;;;4996606;28;20420;-79
2024/02/29 02:57:23;;;;;;;20.67;12.82;;;6.60;99.90;;;;;;4996264;28;20611;-80
2024/02/29 02:59:50;;;;;;;22.13;13.57;;;6.60;99.90;;;;;;4974828;28;20041;-79
2024/02/29 03:02:17;;;;;;;21.02;12.55;;;6.60;99.90;;;;;;4978778;28;20042;-80
2024/02/29 03:04:44;;;;;;;18.30;11.52;;;6.60;99.90;;;;;;4978446;28;20041;-79
2024/02/29 03:07:11;;;;;;;17.35;11.77;;;6.60;99.90;;;;;;4996352;28;20045;-79
2024/02/29 03:09:38;;;;;;;19.80;13.15;;;6.60;99.90;;;;;;4985924;28;20045;-79
2024/02/29 03:12:05;;;;;;;22.45;13.82;;;6.60;99.90;;;;;;4995350;28;20036;-79
2024/02/29 03:14:31;;;;;;;16.02;10.80;;;6.60;99.90;;;;;;4986548;28;20045;-78
2024/02/29 03:16:57;;;;;;;22.60;11.82;;;6.60;99.90;;;;;;4990551;28;20088;-79
2024/02/29 03:19:24;;;;;;;16.05;10.98;;;6.60;99.90;;;;;;4990095;28;20044;-78
2024/02/29 03:21:50;;;;;;;15.50;10.88;;;6.70;99.90;;;;;;4993275;28;20483;-78
2024/02/29 03:24:17;;;;;;;18.55;11.48;;;6.70;99.90;;;;;;4993234;28;20037;-79
2024/02/29 03:26:43;;;;;;;18.40;10.85;;;6.70;99.90;;;;;;4982920;28;20044;-79
2024/02/29 03:29:11;;;;;;;17.65;11.70;;;6.70;99.90;;;;;;4994854;28;20501;-79
2024/02/29 03:31:38;;;;;;;20.67;13.00;;;6.70;99.90;;;;;;4979949;28;20033;-79
2024/02/29 03:34:04;;;;;;;18.08;12.20;;;6.70;99.90;;;;;;4979179;28;20370;-79
2024/02/29 03:36:31;;;;;;;24.23;13.05;;;6.70;99.90;;;;;;4966513;28;20046;-79
2024/02/29 03:38:57;;;;;;;19.88;13.25;;;6.70;99.90;;;;;;4979425;28;20396;-79
2024/02/29 03:41:24;;;;;;;19.83;12.57;;;6.70;99.90;;;;;;4978165;28;20433;-79
2024/02/29 03:43:50;;;;;;;21.85;13.73;;;6.70;99.90;;;;;;4981177;28;20045;-79
2024/02/29 03:46:16;;;;;;;20.35;12.90;;;6.70;99.90;;;;;;4998854;28;20040;-79
2024/02/29 03:48:43;;;;;;;17.88;11.88;;;6.70;99.90;;;;;;4997152;28;20053;-79
2024/02/29 03:51:09;;;;;;;19.10;12.02;;;6.80;99.90;;;;;;4994972;28;20067;-79
2024/02/29 03:53:36;;;;;;;19.88;13.38;;;6.80;99.90;;;;;;4995610;28;20038;-79
2024/02/29 03:56:03;;;;;;;20.52;13.25;;;6.80;99.90;;;;;;4998299;28;20056;-79
2024/02/29 03:58:29;;;;;;;16.27;10.90;;;6.80;99.90;;;;;;4970294;28;20472;-79
2024/02/29 04:00:55;;;;;;;20.20;12.38;;;6.80;99.90;;;;;;5001349;28;20033;-80
2024/02/29 04:03:22;;;;;;;19.83;12.73;;;6.80;99.90;;;;;;5001178;28;20042;-79
2024/02/29 04:05:48;;;;;;;17.35;12.07;;;6.80;99.90;;;;;;5001591;28;20037;-78
2024/02/29 04:08:15;;;;;;;20.85;13.40;;;6.80;99.90;;;;;;4983946;28;20033;-79
2024/02/29 04:10:44;;;;;;;18.65;12.30;;;6.80;99.90;;;;;;5007757;28;20033;-78
2024/02/29 04:13:11;;;;;;;22.13;12.65;;;6.80;99.90;;;;;;4999315;28;20021;-78
2024/02/29 04:15:37;;;;;;;21.27;13.40;;;6.80;99.90;;;;;;4983790;28;20616;-78
2024/02/29 04:18:04;;;;;;;18.95;12.45;;;6.80;99.90;;;;;;4988809;28;20048;-79
2024/02/29 04:20:32;;;;;;;21.58;14.20;;;6.80;99.90;;;;;;5000530;28;21540;-80
2024/02/29 04:22:58;;;;;;;19.60;13.40;;;6.90;99.90;;;;;;5001464;28;21850;-80
2024/02/29 04:25:24;;;;;;;18.60;12.18;;;6.80;99.90;;;;;;4967801;28;20041;-80
2024/02/29 04:27:51;;;;;;;16.77;11.70;;;6.80;99.90;;;;;;5029101;28;20041;-80
2024/02/29 04:30:18;;;;;;;17.33;11.63;;;6.90;99.90;;;;;;4993787;28;20422;-80
2024/02/29 04:32:44;;;;;;;17.15;12.50;;;6.90;99.90;;;;;;4999107;28;20026;-79
2024/02/29 04:35:11;;;;;;;20.02;11.93;;;6.90;99.90;;;;;;4982488;28;20072;-79
2024/02/29 04:37:38;;;;;;;19.38;11.95;;;6.90;99.90;;;;;;4984683;28;20052;-79
2024/02/29 04:40:07;;;;;;;18.80;12.20;;;6.90;99.90;;;;;;5000380;28;20876;-79
2024/02/29 04:42:33;;;;;;;16.70;11.60;;;6.80;99.90;;;;;;5001167;28;20397;-79
2024/02/29 04:45:00;;;;;;;18.90;12.13;;;6.80;99.90;;;;;;4999926;28;20040;-80
2024/02/29 04:47:27;;;;;;;17.25;11.95;;;6.80;99.90;;;;;;4999867;28;20449;-80
2024/02/29 04:49:53;;;;;;;19.52;12.55;;;6.80;99.90;;;;;;4996871;28;20519;-80
2024/02/29 04:52:20;;;;;;;17.40;10.93;;;6.80;99.90;;;;;;4970204;28;20333;-79
2024/02/29 04:54:46;;;;;;;23.48;14.73;;;6.80;99.90;;;;;;4999944;28;20042;-79
2024/02/29 04:57:13;;;;;;;22.10;13.18;;;6.80;99.90;;;;;;4984289;28;21820;-80
2024/02/29 04:59:39;;;;;;;20.75;13.02;;;6.80;99.90;;;;;;4981335;28;20037;-81
2024/02/29 05:02:06;;;;;;;22.60;14.00;;;6.70;99.90;;;;;;4984177;28;20033;-81
2024/02/29 05:04:32;;;;;;;15.93;10.38;;;6.70;99.90;;;;;;4997548;28;20048;-81
2024/02/29 05:06:59;;;;;;;18.45;13.40;;;6.70;99.90;;;;;;4984214;28;20033;-81
2024/02/29 05:09:25;;;;;;;17.25;11.55;;;6.70;99.90;;;;;;4998580;28;20034;-80
2024/02/29 05:11:53;;;;;;;20.45;13.00;;;6.60;99.90;;;;;;5012928;28;20037;-81
2024/02/29 05:14:20;;;;;;;19.48;12.13;;;6.70;99.90;;;;;;4981797;28;20032;-82
2024/02/29 05:16:46;;;;;;;18.67;12.80;;;6.60;99.90;;;;;;4997209;28;20041;-81
2024/02/29 05:19:13;;;;;;;22.90;13.07;;;6.60;99.90;;;;;;4980182;28;20044;-82
2024/02/29 05:21:40;;;;;;;18.60;12.60;;;6.60;99.90;;;;;;4985998;28;20473;-82
2024/02/29 05:24:06;;;;;;;19.50;13.77;;;6.60;99.90;;;;;;4983019;28;20053;-82
2024/02/29 05:26:33;;;;;;;19.52;13.43;;;6.60;99.90;;;;;;4981301;28;20045;-82
2024/02/29 05:28:59;;;;;;;19.73;12.82;;;6.60;99.90;;;;;;4965865;28;20381;-82
2024/02/29 05:31:26;;;;;;;19.20;13.05;;;6.60;99.90;;;;;;4985497;28;20026;-81
2024/02/29 05:33:52;;;;;;;21.30;13.95;;;6.60;99.90;;;;;;4979844;28;20033;-82
2024/02/29 05:36:19;;;;;;;18.45;12.75;;;6.50;99.90;;;;;;4990810;28;20041;-82
2024/02/29 05:38:49;;;;;;;21.75;14.63;;;6.60;99.90;;;;;;4977348;28;20038;-83
2024/02/29 05:41:17;;;;;;;20.00;13.73;;;6.60;99.90;;;;;;4998357;28;20036;-83
2024/02/29 05:43:45;;;;;;;20.85;14.52;;;6.60;99.90;;;;;;4982884;28;20033;-82
2024/02/29 05:46:13;;;;;;;21.42;13.75;;;6.60;99.90;;;;;;4999297;28;20041;-83
2024/02/29 05:48:39;;;;;;;17.50;11.80;;;6.60;99.90;;;;;;5013493;28;20048;-83
2024/02/29 05:51:08;;;;;;;21.15;13.68;;;6.60;99.90;;;;;;4982845;28;20039;-83
2024/02/29 05:53:34;;;;;;;21.65;14.10;;;6.60;99.90;;;;;;5001256;28;20056;-83
2024/02/29 05:56:01;;;;;;;21.02;12.32;;;6.60;99.90;;;;;;4973462;28;20052;-83
2024/02/29 05:58:30;;;;;;;18.95;11.43;;;6.60;99.90;;;;;;4979936;28;20040;-83
2024/02/29 06:00:57;;;;;;;19.92;13.82;;;6.60;99.90;;;;;;4982071;28;20443;-80
2024/02/29 06:03:24;;;;;;;16.75;11.98;;;6.60;99.90;;;;;;4984971;28;20488;-81
2024/02/29 06:05:50;;;;;;;18.95;12.45;;;6.60;99.90;;;;;;5013243;28;20464;-82
2024/02/29 06:08:17;;;;;;;21.27;12.02;;;6.70;99.90;;;;;;4974830;28;20485;-81
2024/02/29 06:10:46;;;;;;;18.00;12.23;;;6.70;99.90;;;;;;4979257;28;20477;-82
2024/02/29 06:13:13;;;;;;;15.77;11.80;;;6.70;99.90;;;;;;4981190;28;20053;-82
2024/02/29 06:15:40;;;;;;;20.55;12.68;;;6.70;99.90;;;;;;4981285;28;20487;-81
2024/02/29 06:18:07;;;;;;;16.83;12.15;;;6.70;99.90;;;;;;4968094;28;20033;-82
2024/02/29 06:20:33;;;;;;;21.98;14.00;;;6.70;99.90;;;;;;4978340;28;20205;-82
2024/02/29 06:23:00;;;;;;;21.20;13.38;;;6.80;99.90;;;;;;4977592;28;20045;-83
2024/02/29 06:25:26;;;;;;;20.70;12.70;;;6.80;99.90;;;;;;4988790;28;20045;-83
2024/02/29 06:27:53;;;;;;;16.33;10.60;;;6.80;99.90;;;;;;4974844;28;20041;-83
2024/02/29 06:30:20;;;;;;;15.50;11.57;;;6.80;99.90;;;;;;4972930;28;20038;-83
2024/02/29 06:32:46;;;;;;;15.07;9.95;;;6.80;99.90;;;;;;4977366;28;20515;-83
2024/02/29 06:35:13;;;;;;;16.77;10.70;;;6.80;99.90;;;;;;4994396;28;20044;-82
2024/02/29 06:37:41;;;;;;;14.55;9.77;;;6.80;99.90;;;;;;4980121;28;20033;-82
2024/02/29 06:40:10;;;;;;;14.88;9.57;;;6.80;99.90;;;;;;4979910;28;20045;-83
2024/02/29 06:42:37;;;;;;;17.73;11.40;;;6.90;99.90;;;;;;4999328;28;20419;-83
2024/02/29 06:45:07;;;;;;;16.65;11.73;;;6.90;99.90;;;;;;4997812;28;20045;-83
2024/02/29 06:47:33;;;;;;;14.10;9.02;;;6.90;99.90;;;;;;4970916;28;20143;-83
2024/02/29 06:50:00;;;;;;;16.35;10.30;;;6.90;99.90;;;;;;4981356;28;20052;-84
2024/02/29 06:52:27;;;;;;;14.45;10.30;;;6.90;99.90;;;;;;5005550;28;20044;-84
2024/02/29 06:54:54;;;;;;;13.00;9.00;;;6.90;99.90;;;;;;5003971;28;20035;-83
2024/02/29 06:57:20;;;;;;;16.02;9.55;;;6.90;99.90;;;;;;4987424;28;20045;-85
2024/02/29 06:59:46;;;;;;;16.85;10.65;;;6.90;99.90;;;;;;4998932;28;20033;-85
2024/02/29 07:02:13;;;;;;;15.23;10.38;;;7.00;99.90;;;;;;4979958;28;20030;-84
2024/02/29 07:04:40;;;;;;;14.88;10.55;;;7.00;99.90;;;;;;4992837;28;20040;-82
2024/02/29 07:07:09;;;;;;;15.75;10.10;;;7.00;99.90;;;;;;4965581;28;20041;-83
2024/02/29 07:09:35;;;;;;;15.20;10.55;;;7.00;99.90;;;;;;4984645;28;20369;-84
2024/02/29 07:12:02;;;;;;;16.23;10.68;;;7.00;99.90;;;;;;4983056;28;20365;-85
2024/02/29 07:14:30;;;;;;;15.82;10.23;;;7.00;99.90;;;;;;4982586;28;20574;-85
2024/02/29 07:16:56;;;;;;;14.23;9.40;;;7.00;99.90;;;;;;4982563;28;20054;-85
2024/02/29 07:19:23;;;;;;;17.30;11.45;;;7.00;99.90;;;;;;4998470;28;20040;-85
2024/02/29 07:21:50;;;;;;;16.33;10.65;;;7.10;99.90;;;;;;4968246;28;20049;-85
2024/02/29 07:24:16;;;;;;;15.25;10.35;;;7.10;99.90;;;;;;4982290;28;20041;-84
2024/02/29 07:26:42;;;;;;;14.45;9.63;;;7.10;99.90;;;;;;4970040;28;20038;-84
2024/02/29 07:29:09;;;;;;;15.75;10.15;;;7.10;99.90;;;;;;5002727;28;20037;-86
2024/02/29 07:31:41;;;;;;;18.95;12.25;;;7.10;99.90;;;;;;4974917;28;20037;-86
2024/02/29 07:34:10;;;;;;;14.73;11.15;;;7.10;99.90;;;;;;4989255;28;20109;-89
2024/02/29 07:36:37;;;;;;;16.20;11.05;;;7.10;99.90;;;;;;4972466;28;20523;-85
2024/02/29 07:39:04;;;;;;;16.90;10.32;;;7.10;99.90;;;;;;5003665;28;20033;-87
2024/02/29 07:41:30;;;;;;;14.77;10.52;;;7.10;99.90;;;;;;4972095;28;20042;-85
2024/02/29 07:43:57;;;;;;;16.13;11.38;;;7.10;99.90;;;;;;4986660;28;20044;-88
2024/02/29 07:46:23;;;;;;;19.70;11.45;;;7.20;99.90;;;;;;4987511;28;20636;-86
2024/02/29 07:48:50;;;;;;;15.90;11.32;;;7.20;99.90;;;;;;4987278;28;20033;-86
2024/02/29 07:51:17;;;;;;;17.77;10.98;;;7.20;99.90;;;;;;5001966;28;20046;-84
2024/02/29 07:53:44;;;;;;;16.55;11.15;;;7.20;99.90;;;;;;4986509;28;20484;-86
2024/02/29 07:56:10;;;;;;;17.55;11.38;;;7.30;99.90;;;;;;4981930;28;22018;-87
2024/02/29 07:58:37;;;;;;;18.10;10.07;;;7.30;99.90;;;;;;5001276;28;20037;-85
2024/02/29 08:01:03;;;;;;;17.35;10.65;;;7.30;99.90;;;;;;5003810;28;20029;-84
2024/02/29 08:03:30;;;;;;;18.42;12.38;;;7.30;99.90;;;;;;4984728;28;20381;-86
2024/02/29 08:05:57;;;;;;;19.23;11.75;;;7.30;99.90;;;;;;4986102;28;20030;-85
2024/02/29 08:08:23;;;;;;;16.10;10.88;;;7.30;99.90;;;;;;4983892;28;21289;-84
2024/02/29 08:10:50;;;;;;;17.17;10.35;;;7.30;99.90;;;;;;4980165;28;20128;-85
2024/02/29 08:13:16;;;;;;;17.80;11.68;;;7.40;99.90;;;;;;4980797;28;20036;-84
2024/02/29 08:15:44;;;;;;;16.77;11.13;;;7.40;99.90;;;;;;4970271;28;20037;-86
2024/02/29 08:18:11;;;;;;;16.38;9.88;;;7.40;99.90;;;;;;4990231;28;20202;-86
2024/02/29 08:20:38;;;;;;;19.90;11.57;;;7.40;99.90;;;;;;4999449;28;20041;-84
2024/02/29 08:23:04;;;;;;;15.23;10.90;;;7.40;99.90;;;;;;4968945;28;20044;-87
2024/02/29 08:25:31;;;;;;;17.88;10.57;;;7.50;99.90;;;;;;4966282;28;20042;-85
2024/02/29 08:27:57;;;;;;;18.88;10.27;;;7.50;99.90;;;;;;4972144;28;20036;-83
2024/02/29 08:30:24;;;;;;;19.02;11.50;;;7.60;99.90;;;;;;5003067;28;20032;-84
2024/02/29 08:32:50;;;;;;;16.05;11.30;;;7.60;99.90;;;;;;5003735;28;20029;-84
2024/02/29 08:35:18;;;;;;;18.25;11.68;;;7.60;99.90;;;;;;4983462;28;20072;-86
2024/02/29 08:37:48;;;;;;;14.38;9.77;;;7.60;99.90;;;;;;4986280;28;20025;-83
2024/02/29 08:40:14;;;;;;;21.27;11.30;;;7.70;99.90;;;;;;4996108;28;20622;-85
2024/02/29 08:42:41;;;;;;;17.30;11.32;;;7.70;99.90;;;;;;4982015;28;20045;-86
2024/02/29 08:45:11;;;;;;;14.90;11.00;;;7.70;99.90;;;;;;4971682;28;20037;-85
2024/02/29 08:47:38;;;;;;;14.88;9.85;;;7.70;99.90;;;;;;4992929;28;20060;-82
2024/02/29 08:50:05;;;;;;;14.27;9.52;;;7.80;99.90;;;;;;4990645;28;20045;-83
2024/02/29 08:52:32;;;;;;;13.15;9.80;;;7.90;99.90;;;;;;5017899;28;20048;-82
2024/02/29 08:54:59;;;;;;;13.75;10.00;;;7.90;99.90;;;;;;4982171;28;20042;-83
2024/02/29 08:57:25;;;;;;;15.43;11.27;;;7.90;99.90;;;;;;4984303;28;20040;-84
2024/02/29 08:59:51;;;;;;;14.52;11.63;;;7.90;99.90;;;;;;4999200;28;20033;-82
2024/02/29 09:02:18;;;;;;;17.30;11.40;;;7.90;99.90;;;;;;4969226;28;20056;-81
2024/02/29 09:04:44;;;;;;;17.33;11.63;;;8.00;99.90;;;;;;4973234;28;20044;-81
2024/02/29 09:07:11;;;;;;;16.42;11.88;;;7.90;99.90;;;;;;4972622;28;20044;-82
2024/02/29 09:09:41;;;;;;;18.80;12.57;;;8.00;99.90;;;;;;4969022;28;20036;-81
2024/02/29 09:12:09;;;;;;;18.20;12.15;;;8.00;99.90;;;;;;4969217;28;20879;-86
2024/02/29 09:14:41;;;;;;;15.38;11.30;;;8.00;99.90;;;;;;4998246;28;20049;-83
2024/02/29 09:17:07;;;;;;;18.33;12.30;;;8.00;99.90;;;;;;4963125;28;20056;-82
2024/02/29 09:19:34;;;;;;;13.90;10.25;;;8.00;99.90;;;;;;4983985;28;20064;-84
2024/02/29 09:22:00;;;;;;;15.10;10.60;;;8.10;99.90;;;;;;5002732;28;20472;-83
2024/02/29 09:24:27;;;;;;;15.80;11.73;;;8.10;99.90;;;;;;5002218;28;20037;-82
2024/02/29 09:26:54;;;;;;;15.57;11.40;;;8.20;99.90;;;;;;4999608;28;20044;-83
2024/02/29 09:29:21;;;;;;;19.55;11.98;;;8.20;99.90;;;;;;5016529;28;20030;-82
2024/02/29 09:31:48;;;;;;;16.75;10.82;;;8.20;99.90;;;;;;4984133;28;20037;-83
2024/02/29 09:34:14;;;;;;;13.23;10.23;;;8.30;99.90;;;;;;4983130;28;20780;-82
2024/02/29 09:36:42;;;;;;;14.48;11.00;;;8.40;99.90;;;;;;5000884;28;22366;-82
2024/02/29 09:39:08;;;;;;;16.05;10.27;;;8.40;99.90;;;;;;5002557;28;20068;-83
2024/02/29 09:41:35;;;;;;;15.65;10.57;;;8.50;99.90;;;;;;4997197;28;20042;-82
2024/02/29 09:44:02;;;;;;;15.52;10.10;;;8.50;99.90;;;;;;4982043;28;20021;-85
2024/02/29 09:46:29;;;;;;;16.33;10.82;;;8.60;99.90;;;;;;4982041;28;20038;-82
2024/02/29 09:48:58;;;;;;;17.95;12.75;;;8.70;99.90;;;;;;4975775;28;20456;-83
2024/02/29 09:51:26;;;;;;;16.95;11.82;;;8.70;99.90;;;;;;4979676;28;20400;-82
2024/02/29 09:53:54;;;;;;;17.27;11.98;;;8.80;99.90;;;;;;4998570;28;20036;-81
2024/02/29 09:56:22;;;;;;;17.38;12.13;;;8.80;99.90;;;;;;4986205;28;20045;-80
2024/02/29 09:58:51;;;;;;;18.88;14.18;;;8.90;99.90;;;;;;4994857;28;20063;-82
2024/02/29 10:01:18;;;;;;;19.33;12.63;;;8.90;99.90;;;;;;4975781;28;20048;-80
2024/02/29 10:03:47;;;;;;;18.00;12.07;;;9.00;99.90;;;;;;4977728;28;20040;-81
2024/02/29 10:06:15;;;;;;;16.20;11.25;;;9.00;99.90;;;;;;4974830;28;20041;-81
2024/02/29 10:08:42;;;;;;;22.13;15.57;;;9.10;99.90;;;;;;4975302;28;20033;-79
2024/02/29 10:11:08;;;;;;;17.40;11.77;;;9.10;99.90;;;;;;4978755;28;20487;-80
2024/02/29 10:13:40;;;;;;;17.55;10.55;;;9.20;99.90;;;;;;4981916;28;20033;-80
2024/02/29 10:16:13;;;;;;;17.95;12.10;;;9.30;99.90;;;;;;4991589;28;20983;-79
2024/02/29 10:18:39;;;;;;;18.55;10.93;;;9.40;99.90;;;;;;4974634;28;20951;-80
2024/02/29 10:21:14;;;;;;;11.18;8.80;;;9.40;99.90;;;;;;4991854;28;20033;-80
2024/02/29 10:23:42;;;;;;;15.23;9.48;;;9.50;99.90;;;;;;4975064;28;20472;-81
2024/02/29 10:26:09;;;;;;;14.60;10.23;;;9.50;99.90;;;;;;4960986;28;20520;-82
2024/02/29 10:28:35;;;;;;;14.70;10.82;;;9.50;99.90;;;;;;4972236;28;21906;-83
2024/02/29 10:31:02;;;;;;;14.13;9.95;;;9.60;99.90;;;;;;5014749;28;21097;-82
2024/02/29 10:33:29;;;;;;;18.20;10.73;;;9.60;99.90;;;;;;4994533;28;20092;-85
2024/02/29 10:35:56;;;;;;;13.15;8.80;;;9.60;99.90;;;;;;4977051;28;20392;-82
2024/02/29 10:38:23;;;;;;;12.40;9.38;;;9.60;99.90;;;;;;4962494;28;20048;-80
2024/02/29 10:40:51;;;;;;;11.65;7.97;;;9.70;99.90;;;;;;4993552;28;20041;-83
2024/02/29 10:43:22;;;;;;;14.45;9.30;;;9.70;99.90;;;;;;4983889;28;20267;-82
2024/02/29 10:45:50;;;;;;;20.50;12.18;;;9.70;99.90;;;;;;4973031;28;20129;-82
2024/02/29 10:48:25;;;;;;;27.63;17.63;;;9.70;99.90;;;;;;4985664;28;20476;-84
2024/02/29 10:51:16;;;;;;;17.70;11.38;;;9.70;99.90;;;;;;4997593;28;20482;-82
2024/02/29 10:53:50;;;;;;;15.32;10.52;;;9.70;99.90;;;;;;4970332;28;20038;-83
2024/02/29 10:56:24;;;;;;;14.93;10.38;;;9.70;99.90;;;;;;4981203;28;20043;-81
2024/02/29 10:59:03;;;;;;;12.07;9.05;;;9.70;99.90;;;;;;4980995;28;20044;-82
2024/02/29 11:01:36;;;;;;;16.00;9.30;;;9.80;99.90;;;;;;4969480;28;20045;-81
2024/02/29 11:04:03;;;;;;;11.00;8.20;;;9.80;99.90;;;;;;4989079;28;20052;-82
2024/02/29 11:06:34;;;;;;;13.95;8.68;;;9.80;99.90;;;;;;4989660;28;20045;-81
2024/02/29 11:09:03;;;;;;;14.07;8.80;;;9.90;99.90;;;;;;5020877;28;20037;-78
2024/02/29 11:11:29;;;;;;;13.32;10.02;;;9.90;99.90;;;;;;5017145;28;20037;-79
2024/02/29 11:14:22;;;;;;;13.40;9.55;;;9.90;99.90;;;;;;4988331;28;20504;-79
2024/02/29 11:16:48;;;;;;;17.25;10.63;;;9.90;99.90;;;;;;4967965;28;20042;-79
2024/02/29 11:19:17;;;;;;;13.82;9.90;;;9.90;99.90;;;;;;5038552;28;20025;-79
2024/02/29 11:21:45;;;;;;;17.60;10.98;;;9.90;99.90;;;;;;4978151;28;20493;-80
2024/02/29 11:24:20;;;;;;;15.82;10.07;;;9.90;99.90;;;;;;4986293;28;20030;-80
2024/02/29 11:26:54;;;;;;;12.63;9.13;;;9.90;99.90;;;;;;4999352;28;20504;-79
2024/02/29 11:29:22;;;;;;;11.65;8.73;;;9.90;99.90;;;;;;4998820;28;20045;-81
2024/02/29 11:31:55;;;;;;;11.80;8.02;;;9.90;99.90;;;;;;4985222;28;20076;-81
2024/02/29 11:34:21;;;;;;;10.98;8.65;;;10.00;99.90;;;;;;4985481;28;20037;-81
2024/02/29 11:36:49;;;;;;;11.82;7.72;;;10.00;99.90;;;;;;5002909;28;20120;-81
2024/02/29 11:39:22;;;;;;;12.75;9.15;;;10.00;99.90;;;;;;5003216;28;20034;-81
2024/02/29 11:41:50;;;;;;;13.75;8.77;;;9.90;99.90;;;;;;5014178;28;20551;-81
2024/02/29 11:44:16;;;;;;;12.07;8.43;;;9.90;99.90;;;;;;5000396;28;20029;-81
2024/02/29 11:46:49;;;;;;;10.88;7.63;;;9.90;99.90;;;;;;4984881;28;20044;-81
2024/02/29 11:49:17;;;;;;;11.80;8.48;;;9.90;99.90;;;;;;5003575;28;20612;-81
2024/02/29 11:51:44;;;;;;;13.40;8.90;;;9.90;99.90;;;;;;5004280;28;20669;-81
2024/02/29 11:54:15;;;;;;;13.07;8.25;;;9.80;99.90;;;;;;5022475;28;20764;-81
2024/02/29 11:56:42;;;;;;;14.05;9.73;;;9.80;99.90;;;;;;4990993;28;20383;-82
2024/02/29 11:59:15;;;;;;;11.55;8.48;;;9.80;99.90;;;;;;5001104;28;20037;-81
2024/02/29 12:01:42;;;;;;;11.85;7.57;;;9.90;99.90;;;;;;4984157;28;20714;-81
2024/02/29 12:04:09;;;;;;;12.13;7.80;;;9.90;99.90;;;;;;5033157;28;20087;-82
2024/02/29 12:06:39;;;;;;;12.30;8.63;;;9.90;99.90;;;;;;4984978;28;20243;-82
2024/02/29 12:09:12;;;;;;;14.98;8.98;;;9.90;99.90;;;;;;5018280;28;20036;-83
2024/02/29 12:11:42;;;;;;;;;;;9.90;99.90;;;;;;4992036;28;20045;-81
2024/02/29 12:14:08;;;;;;;16.48;10.70;;;10.00;99.90;;;;;;5003414;28;20560;-79
2024/02/29 12:16:36;;;;;;;19.27;11.75;;;10.00;99.90;;;;;;4980744;28;20052;-79
2024/02/29 12:19:03;;;;;;;15.70;10.63;;;9.90;99.90;;;;;;4982808;28;20503;-80
2024/02/29 12:21:29;;;;;;;20.75;13.25;;;9.90;99.90;;;;;;4981443;28;20037;-82
2024/02/29 12:23:56;;;;;;;21.60;13.77;;;9.90;99.90;;;;;;4997708;28;20037;-80
2024/02/29 12:26:25;;;;;;;16.50;10.90;;;9.80;99.90;;;;;;5000919;28;20491;-80
2024/02/29 12:28:51;;;;;;;14.45;9.68;;;9.80;99.90;;;;;;5003874;28;20045;-81
2024/02/29 12:31:18;;;;;;;16.50;10.05;;;9.80;99.90;;;;;;4969139;28;20045;-81
2024/02/29 12:33:46;;;;;;;13.30;9.23;;;9.80;99.90;;;;;;5001422;28;20044;-81
2024/02/29 12:36:18;;;;;;;11.30;8.57;;;9.80;99.90;;;;;;4995056;28;20026;-81
2024/02/29 12:38:46;;;;;;;10.55;7.57;;;9.80;99.90;;;;;;4998277;28;20501;-82